createdAt,value
2022-08-26T00:02:20.557Z,26.49
2022-08-26T00:04:50.493Z,26.53
2022-08-26T00:07:19.304Z,26.52
2022-08-26T00:09:47.644Z,26.49
2022-08-26T00:12:16.641Z,26.43
2022-08-26T00:14:44.977Z,26.34
2022-08-26T00:17:13.591Z,26.01
2022-08-26T00:19:41.949Z,25.49
2022-08-26T00:22:13.998Z,25.98
2022-08-26T00:24:49.863Z,25.33
2022-08-26T00:27:18.238Z,24.57
2022-08-26T00:29:46.628Z,24.58
2022-08-26T00:32:14.952Z,25.32
2022-08-26T00:34:43.361Z,25.25
2022-08-26T00:37:16.141Z,25.50
2022-08-26T00:39:44.663Z,25.52
2022-08-26T00:42:14.165Z,24.98
2022-08-26T00:44:42.586Z,24.40
2022-08-26T00:47:22.597Z,24.72
2022-08-26T00:49:52.703Z,24.58
2022-08-26T00:52:24.229Z,24.58
2022-08-26T00:55:01.377Z,24.31
2022-08-26T00:57:32.087Z,24.51
2022-08-26T01:00:05.232Z,24.35
2022-08-26T01:02:33.668Z,24.91
2022-08-26T01:05:05.166Z,24.18
2022-08-26T01:07:36.327Z,24.51
2022-08-26T01:10:10.611Z,24.98
2022-08-26T01:12:43.853Z,24.30
2022-08-26T01:15:18.200Z,24.95
2022-08-26T01:17:46.591Z,24.92
2022-08-26T01:20:35.191Z,24.74
2022-08-26T01:23:08.954Z,25.33
2022-08-26T01:25:43.038Z,24.37
2022-08-26T01:28:17.347Z,25.05
2022-08-26T01:30:50.983Z,24.25
2022-08-26T01:33:24.582Z,24.35
2022-08-26T01:35:53.417Z,25.36
2022-08-26T01:38:23.723Z,25.41
2022-08-26T01:40:52.557Z,24.68
2022-08-26T01:43:28.347Z,24.97
2022-08-26T01:45:57.094Z,25.21
2022-08-26T01:48:31.840Z,25.07
2022-08-26T01:51:02.276Z,24.20
2022-08-26T01:53:32.406Z,24.31
2022-08-26T01:56:03.379Z,24.59
2022-08-26T01:58:37.590Z,24.54
2022-08-26T02:01:07.263Z,23.29
2022-08-26T02:03:59.836Z,23.20
2022-08-26T02:06:28.356Z,23.89
2022-08-26T02:09:02.008Z,24.51
2022-08-26T02:11:30.364Z,24.05
2022-08-26T02:14:04.426Z,24.14
2022-08-26T02:16:42.445Z,23.71
2022-08-26T02:19:17.217Z,23.71
2022-08-26T02:21:50.990Z,24.34
2022-08-26T02:24:27.498Z,24.72
2022-08-26T02:26:57.660Z,25.08
2022-08-26T02:29:33.596Z,24.53
2022-08-26T02:32:02.216Z,24.36
2022-08-26T02:34:33.030Z,23.87
2022-08-26T02:37:05.382Z,24.00
2022-08-26T02:39:37.747Z,23.62
2022-08-26T02:42:06.626Z,23.95
2022-08-26T02:44:35.255Z,24.41
2022-08-26T02:47:03.801Z,24.26
2022-08-26T02:49:33.653Z,23.51
2022-08-26T02:52:02.127Z,23.68
2022-08-26T02:54:30.546Z,24.21
2022-08-26T02:57:00.463Z,24.15
2022-08-26T02:59:29.291Z,24.23
2022-08-26T03:01:58.628Z,24.98
2022-08-26T03:04:27.027Z,24.27
2022-08-26T03:06:56.247Z,23.69
2022-08-26T03:09:24.918Z,24.63
2022-08-26T03:11:55.527Z,24.57
2022-08-26T03:14:26.185Z,24.68
2022-08-26T03:16:55.655Z,24.91
2022-08-26T03:19:25.714Z,24.32
2022-08-26T03:21:57.809Z,24.79
2022-08-26T03:24:27.568Z,24.70
2022-08-26T03:26:56.009Z,24.75
2022-08-26T03:29:43.542Z,24.28
2022-08-26T03:32:12.053Z,24.83
2022-08-26T03:34:40.612Z,24.43
2022-08-26T03:37:08.999Z,24.12
2022-08-26T03:39:38.062Z,23.29
2022-08-26T03:42:06.993Z,23.91
2022-08-26T03:44:41.986Z,23.50
2022-08-26T03:47:10.755Z,23.19
2022-08-26T03:49:39.475Z,23.21
2022-08-26T03:52:08.161Z,22.94
2022-08-26T03:54:36.470Z,22.83
2022-08-26T03:57:05.165Z,23.80
2022-08-26T03:59:34.229Z,24.05
2022-08-26T04:02:04.067Z,24.47
2022-08-26T04:04:39.820Z,24.52
2022-08-26T04:07:08.658Z,23.80
2022-08-26T04:09:37.192Z,23.82
2022-08-26T04:12:06.499Z,23.82
2022-08-26T04:14:37.762Z,23.24
2022-08-26T04:17:08.805Z,23.92
2022-08-26T04:19:37.167Z,23.24
2022-08-26T04:22:05.843Z,24.02
2022-08-26T04:24:34.726Z,24.23
2022-08-26T04:27:03.717Z,24.59
2022-08-26T04:29:33.146Z,24.70
2022-08-26T04:32:03.713Z,24.38
2022-08-26T04:34:33.501Z,24.09
2022-08-26T04:37:02.602Z,24.07
2022-08-26T04:39:30.923Z,23.79
2022-08-26T04:42:01.698Z,23.71
2022-08-26T04:44:31.730Z,24.02
2022-08-26T04:47:00.307Z,24.22
2022-08-26T04:49:28.890Z,23.48
2022-08-26T04:52:06.127Z,23.86
2022-08-26T04:54:36.128Z,23.73
2022-08-26T04:57:04.712Z,23.73
2022-08-26T04:59:38.491Z,24.40
2022-08-26T05:02:07.920Z,23.80
2022-08-26T05:04:37.502Z,24.01
2022-08-26T05:07:08.133Z,23.62
2022-08-26T05:09:38.124Z,23.80
2022-08-26T05:12:07.074Z,23.87
2022-08-26T05:14:35.443Z,24.27
2022-08-26T05:17:03.962Z,23.65
2022-08-26T05:19:33.111Z,23.04
2022-08-26T05:22:01.476Z,23.50
2022-08-26T05:24:31.202Z,23.36
2022-08-26T05:26:59.544Z,23.84
2022-08-26T05:29:28.265Z,23.88
2022-08-26T05:31:56.586Z,22.97
2022-08-26T05:34:25.774Z,23.66
2022-08-26T05:36:58.559Z,23.91
2022-08-26T05:39:26.920Z,23.60
2022-08-26T05:41:56.664Z,23.93
2022-08-26T05:44:24.969Z,24.39
2022-08-26T05:46:53.418Z,23.78
2022-08-26T05:49:26.225Z,24.30
2022-08-26T05:51:54.782Z,24.19
2022-08-26T05:54:23.077Z,23.83
2022-08-26T05:56:52.485Z,23.84
2022-08-26T05:59:24.641Z,23.69
2022-08-26T06:01:53.464Z,23.93
2022-08-26T06:04:23.107Z,23.35
2022-08-26T06:06:55.074Z,23.35
2022-08-26T06:09:23.464Z,24.08
2022-08-26T06:11:52.127Z,23.69
2022-08-26T06:14:23.865Z,23.86
2022-08-26T06:16:52.272Z,23.91
2022-08-26T06:19:22.118Z,23.95
2022-08-26T06:21:54.063Z,24.20
2022-08-26T06:24:40.828Z,24.21
2022-08-26T06:27:13.894Z,23.36
2022-08-26T06:29:45.033Z,23.54
2022-08-26T06:32:13.389Z,23.61
2022-08-26T06:34:41.732Z,23.83
2022-08-26T06:37:10.066Z,23.55
2022-08-26T06:39:41.049Z,24.18
2022-08-26T06:42:11.079Z,23.96
2022-08-26T06:44:41.674Z,24.03
2022-08-26T06:47:14.520Z,24.28
2022-08-26T06:49:44.214Z,23.90
2022-08-26T06:52:12.770Z,23.85
2022-08-26T06:54:43.304Z,24.14
2022-08-26T06:57:13.015Z,24.49
2022-08-26T06:59:45.022Z,24.12
2022-08-26T07:02:15.235Z,24.53
2022-08-26T07:04:47.827Z,23.55
2022-08-26T07:07:16.913Z,23.72
2022-08-26T07:09:45.929Z,23.53
2022-08-26T07:12:14.323Z,23.90
2022-08-26T07:14:47.282Z,23.54
2022-08-26T07:17:17.846Z,24.06
2022-08-26T07:19:49.699Z,24.12
2022-08-26T07:22:18.830Z,23.44
2022-08-26T07:24:47.399Z,23.51
2022-08-26T07:27:18.025Z,23.68
2022-08-26T07:29:46.764Z,23.89
2022-08-26T07:32:20.243Z,23.90
2022-08-26T07:34:51.582Z,23.68
2022-08-26T07:37:20.675Z,24.09
2022-08-26T07:39:49.083Z,23.59
2022-08-26T07:42:20.507Z,23.79
2022-08-26T07:44:49.261Z,23.93
2022-08-26T07:47:25.086Z,24.23
2022-08-26T07:49:56.161Z,23.70
2022-08-26T07:52:26.984Z,23.29
2022-08-26T07:54:58.166Z,23.38
2022-08-26T07:57:27.040Z,23.39
2022-08-26T07:59:56.142Z,23.33
2022-08-26T08:02:28.188Z,23.32
2022-08-26T08:04:58.389Z,24.10
2022-08-26T08:07:38.368Z,24.25
2022-08-26T08:10:16.204Z,24.21
2022-08-26T08:12:44.968Z,24.23
2022-08-26T08:15:14.454Z,24.18
2022-08-26T08:17:45.109Z,23.87
2022-08-26T08:20:15.946Z,23.14
2022-08-26T08:22:44.827Z,23.47
2022-08-26T08:25:14.752Z,23.58
2022-08-26T08:27:46.429Z,23.52
2022-08-26T08:30:20.794Z,23.01
2022-08-26T08:32:53.149Z,22.80
2022-08-26T08:35:23.561Z,22.46
2022-08-26T08:37:54.791Z,23.02
2022-08-26T08:40:26.534Z,22.43
2022-08-26T08:43:02.442Z,22.46
2022-08-26T08:45:37.630Z,22.94
2022-08-26T08:48:14.810Z,22.79
2022-08-26T08:50:46.967Z,23.50
2022-08-26T08:53:22.682Z,23.85
2022-08-26T08:56:05.139Z,23.84
2022-08-26T08:58:51.526Z,23.06
2022-08-26T09:01:31.126Z,23.20
2022-08-26T09:04:26.036Z,23.04
2022-08-26T09:06:58.991Z,23.02
2022-08-26T09:09:36.988Z,23.48
2022-08-26T09:12:08.997Z,23.33
2022-08-26T09:14:37.728Z,23.35
2022-08-26T09:17:17.783Z,23.88
2022-08-26T09:19:53.467Z,23.42
2022-08-26T09:22:32.319Z,23.71
2022-08-26T09:25:01.517Z,23.53
2022-08-26T09:27:50.496Z,22.98
2022-08-26T09:30:27.327Z,23.60
2022-08-26T09:33:03.023Z,23.52
2022-08-26T09:35:43.512Z,23.10
2022-08-26T09:38:26.733Z,23.74
2022-08-26T09:40:59.696Z,23.09
2022-08-26T09:43:29.187Z,23.15
2022-08-26T09:46:15.093Z,23.35
2022-08-26T09:48:43.745Z,23.42
2022-08-26T09:51:33.873Z,23.64
2022-08-26T09:54:05.724Z,23.81
2022-08-26T09:56:39.524Z,23.58
2022-08-26T09:59:12.091Z,23.44
2022-08-26T10:01:43.273Z,23.58
2022-08-26T10:04:21.260Z,23.22
2022-08-26T10:07:00.186Z,23.55
2022-08-26T10:09:30.071Z,23.49
2022-08-26T10:12:05.405Z,23.17
2022-08-26T10:14:39.865Z,23.21
2022-08-26T10:17:15.812Z,23.06
2022-08-26T10:19:57.046Z,23.28
2022-08-26T10:22:35.732Z,22.82
2022-08-26T10:25:12.390Z,23.14
2022-08-26T10:27:53.779Z,23.51
2022-08-26T10:30:25.605Z,23.25
2022-08-26T10:32:58.915Z,23.57
2022-08-26T10:35:28.128Z,23.48
2022-08-26T10:38:03.976Z,23.86
2022-08-26T10:40:52.917Z,23.73
2022-08-26T10:43:26.507Z,23.30
2022-08-26T10:46:00.414Z,23.25
2022-08-26T10:48:38.591Z,23.82
2022-08-26T10:51:08.600Z,23.61
2022-08-26T10:53:51.416Z,23.23
2022-08-26T10:56:35.543Z,23.58
2022-08-26T10:59:12.476Z,23.56
2022-08-26T11:01:51.060Z,23.59
2022-08-26T11:04:48.342Z,23.67
2022-08-26T11:07:41.171Z,23.59
2022-08-26T11:11:04.616Z,23.78
2022-08-26T11:14:03.075Z,23.98
2022-08-26T11:16:42.793Z,23.99
2022-08-26T11:19:58.976Z,24.03
2022-08-26T11:22:31.112Z,23.93
2022-08-26T11:25:11.595Z,23.83
2022-08-26T11:27:59.691Z,23.77
2022-08-26T11:30:56.906Z,23.57
2022-08-26T11:33:58.142Z,23.66
2022-08-26T11:36:58.242Z,24.20
2022-08-26T11:39:36.747Z,24.31
2022-08-26T11:42:28.461Z,23.96
2022-08-26T11:44:58.390Z,24.00
2022-08-26T11:47:31.522Z,24.39
2022-08-26T11:50:13.755Z,24.28
2022-08-26T11:52:42.256Z,24.04
2022-08-26T11:55:16.282Z,24.00
2022-08-26T11:57:51.886Z,23.96
2022-08-26T12:00:24.437Z,23.62
2022-08-26T12:02:54.716Z,23.94
2022-08-26T12:05:30.845Z,24.20
2022-08-26T12:08:05.035Z,24.18
2022-08-26T12:10:37.116Z,24.22
2022-08-26T12:13:08.045Z,24.06
2022-08-26T12:15:36.915Z,24.09
2022-08-26T12:18:30.756Z,23.96
2022-08-26T12:21:12.321Z,24.36
2022-08-26T12:23:47.559Z,24.49
2022-08-26T12:26:28.811Z,24.26
2022-08-26T12:29:02.339Z,24.19
2022-08-26T12:31:49.750Z,24.43
2022-08-26T12:34:18.767Z,24.33
2022-08-26T12:36:50.909Z,24.49
2022-08-26T12:39:29.321Z,24.56
2022-08-26T12:42:01.376Z,24.56
2022-08-26T12:44:36.596Z,24.73
2022-08-26T12:47:10.443Z,24.65
2022-08-26T12:49:40.545Z,24.63
2022-08-26T12:52:30.932Z,24.35
2022-08-26T12:55:02.743Z,24.28
2022-08-26T12:57:36.221Z,24.33
2022-08-26T13:00:31.991Z,24.31
2022-08-26T13:03:01.997Z,24.16
2022-08-26T13:05:35.156Z,24.25
2022-08-26T13:08:16.623Z,24.29
2022-08-26T13:10:48.730Z,24.11
2022-08-26T13:13:18.390Z,23.90
2022-08-26T13:15:46.749Z,23.74
2022-08-26T13:18:15.089Z,23.76
2022-08-26T13:20:45.122Z,23.87
2022-08-26T13:23:14.138Z,23.96
2022-08-26T13:25:42.705Z,23.83
2022-08-26T13:28:11.028Z,24.07
2022-08-26T13:30:41.906Z,23.77
2022-08-26T13:33:12.252Z,23.79
2022-08-26T13:35:43.526Z,23.65
2022-08-26T13:38:22.309Z,23.73
2022-08-26T13:41:02.710Z,23.73
2022-08-26T13:43:31.912Z,23.86
2022-08-26T13:46:02.629Z,23.69
2022-08-26T13:48:31.548Z,23.67
2022-08-26T13:51:00.180Z,24.04
2022-08-26T13:53:29.507Z,23.71
2022-08-26T13:55:58.783Z,23.74
2022-08-26T13:58:27.903Z,24.27
2022-08-26T14:00:58.131Z,23.63
2022-08-26T14:03:28.152Z,23.52
2022-08-26T14:05:56.644Z,23.38
2022-08-26T14:08:25.333Z,23.79
2022-08-26T14:10:53.810Z,23.57
2022-08-26T14:13:22.618Z,23.52
2022-08-26T14:15:51.169Z,23.72
2022-08-26T14:18:24.188Z,23.59
2022-08-26T14:20:56.142Z,23.48
2022-08-26T14:23:24.851Z,23.32
2022-08-26T14:25:53.541Z,23.68
2022-08-26T14:28:21.939Z,23.78
2022-08-26T14:30:56.445Z,23.36
2022-08-26T14:33:29.109Z,24.00
2022-08-26T14:36:18.811Z,23.60
2022-08-26T14:38:47.584Z,23.36
2022-08-26T14:41:18.251Z,23.64
2022-08-26T14:43:54.528Z,23.44
2022-08-26T14:46:22.949Z,23.25
2022-08-26T14:48:51.275Z,23.12
2022-08-26T14:51:24.040Z,23.27
2022-08-26T14:54:10.896Z,23.36
2022-08-26T14:56:42.262Z,23.70
2022-08-26T14:59:10.755Z,23.73
2022-08-26T15:01:39.256Z,23.93
2022-08-26T15:04:07.816Z,23.67
2022-08-26T15:06:38.215Z,23.73
2022-08-26T15:09:07.361Z,23.84
2022-08-26T15:11:36.165Z,23.62
2022-08-26T15:14:04.651Z,23.42
2022-08-26T15:16:33.750Z,23.06
2022-08-26T15:19:04.513Z,23.06
2022-08-26T15:21:34.040Z,23.58
2022-08-26T15:24:05.056Z,23.69
2022-08-26T15:26:35.755Z,23.57
2022-08-26T15:29:05.317Z,23.47
2022-08-26T15:31:34.969Z,23.27
2022-08-26T15:34:07.598Z,23.03
2022-08-26T15:36:38.224Z,22.66
2022-08-26T15:39:09.456Z,22.74
2022-08-26T15:41:38.239Z,22.96
2022-08-26T15:44:09.177Z,23.00
2022-08-26T15:46:38.671Z,23.09
2022-08-26T15:49:07.681Z,23.19
2022-08-26T15:51:45.333Z,23.17
2022-08-26T15:54:18.134Z,23.03
2022-08-26T15:56:48.546Z,23.02
2022-08-26T15:59:17.788Z,23.22
2022-08-26T16:01:46.709Z,23.68
2022-08-26T16:04:15.487Z,23.17
2022-08-26T16:06:44.005Z,23.23
2022-08-26T16:09:12.986Z,23.33
2022-08-26T16:11:43.027Z,23.13
2022-08-26T16:14:11.408Z,23.15
2022-08-26T16:16:41.351Z,22.96
2022-08-26T16:19:11.589Z,22.76
2022-08-26T16:21:40.863Z,22.56
2022-08-26T16:24:09.347Z,22.62
2022-08-26T16:26:39.923Z,22.67
2022-08-26T16:29:12.688Z,22.88
2022-08-26T16:31:41.656Z,22.97
2022-08-26T16:34:10.932Z,22.72
2022-08-26T16:36:40.552Z,22.74
2022-08-26T16:39:10.072Z,22.85
2022-08-26T16:41:38.579Z,23.02
2022-08-26T16:44:11.453Z,22.91
2022-08-26T16:46:41.230Z,22.63
2022-08-26T16:49:09.677Z,22.91
2022-08-26T16:51:38.602Z,22.98
2022-08-26T16:54:08.983Z,22.73
2022-08-26T16:56:38.807Z,23.21
2022-08-26T16:59:11.515Z,22.81
2022-08-26T17:01:40.048Z,23.02
2022-08-26T17:04:08.591Z,22.75
2022-08-26T17:06:38.277Z,22.59
2022-08-26T17:09:06.974Z,22.87
2022-08-26T17:11:36.039Z,23.31
2022-08-26T17:14:05.390Z,22.79
2022-08-26T17:16:35.516Z,22.78
2022-08-26T17:19:05.589Z,22.41
2022-08-26T17:21:35.491Z,22.82
2022-08-26T17:24:05.024Z,22.74
2022-08-26T17:26:34.015Z,22.78
2022-08-26T17:29:02.376Z,22.37
2022-08-26T17:31:32.551Z,22.17
2022-08-26T17:34:02.292Z,22.18
2022-08-26T17:36:31.504Z,22.17
2022-08-26T17:39:00.419Z,21.98
2022-08-26T17:41:30.120Z,21.95
2022-08-26T17:43:58.831Z,22.33
2022-08-26T17:46:27.534Z,22.29
2022-08-26T17:48:56.406Z,22.30
2022-08-26T17:51:27.038Z,22.68
2022-08-26T17:53:55.752Z,22.57
2022-08-26T17:56:28.078Z,22.40
2022-08-26T17:59:02.267Z,22.72
2022-08-26T18:01:31.329Z,22.62
2022-08-26T18:04:00.974Z,22.53
2022-08-26T18:06:31.619Z,22.61
2022-08-26T18:09:00.646Z,22.58
2022-08-26T18:11:31.247Z,22.09
2022-08-26T18:14:00.406Z,22.00
2022-08-26T18:16:34.134Z,22.05
2022-08-26T18:19:02.572Z,21.93
2022-08-26T18:21:32.350Z,22.21
2022-08-26T18:24:00.715Z,21.80
2022-08-26T18:26:32.222Z,21.74
2022-08-26T18:29:01.884Z,21.84
2022-08-26T18:31:31.117Z,21.76
2022-08-26T18:34:01.562Z,22.07
2022-08-26T18:36:34.579Z,22.11
2022-08-26T18:39:04.793Z,22.14
2022-08-26T18:41:39.777Z,22.38
2022-08-26T18:44:12.942Z,22.52
2022-08-26T18:46:43.198Z,22.82
2022-08-26T18:49:13.461Z,22.33
2022-08-26T18:51:44.375Z,22.53
2022-08-26T18:54:13.564Z,22.19
2022-08-26T18:56:43.807Z,22.11
2022-08-26T18:59:13.619Z,22.14
2022-08-26T19:01:43.386Z,22.29
2022-08-26T19:04:15.387Z,22.28
2022-08-26T19:06:48.357Z,22.57
2022-08-26T19:09:17.882Z,22.69
2022-08-26T19:11:47.055Z,22.26
2022-08-26T19:14:19.308Z,22.17
2022-08-26T19:16:52.527Z,22.29
2022-08-26T19:19:23.884Z,22.28
2022-08-26T19:21:54.287Z,22.24
2022-08-26T19:24:27.433Z,22.25
2022-08-26T19:27:00.826Z,22.27
2022-08-26T19:29:32.155Z,22.34
2022-08-26T19:32:00.948Z,22.17
2022-08-26T19:34:29.550Z,21.98
2022-08-26T19:36:59.336Z,22.04
2022-08-26T19:39:28.596Z,22.35
2022-08-26T19:41:56.988Z,22.06
2022-08-26T19:44:42.707Z,21.63
2022-08-26T19:47:13.411Z,22.04
2022-08-26T19:49:41.779Z,22.32
2022-08-26T19:52:12.261Z,21.52
2022-08-26T19:54:41.506Z,21.49
2022-08-26T19:57:11.137Z,21.83
2022-08-26T19:59:40.250Z,22.04
2022-08-26T20:02:11.044Z,21.93
2022-08-26T20:04:41.614Z,21.74
2022-08-26T20:07:14.225Z,21.71
2022-08-26T20:09:45.045Z,21.51
2022-08-26T20:12:13.693Z,22.00
2022-08-26T20:14:43.003Z,21.44
2022-08-26T20:17:12.117Z,21.76
2022-08-26T20:19:57.818Z,21.85
2022-08-26T20:22:28.217Z,21.63
2022-08-26T20:24:56.639Z,22.03
2022-08-26T20:27:34.337Z,21.91
2022-08-26T20:30:09.397Z,21.31
2022-08-26T20:32:38.552Z,21.01
2022-08-26T20:35:10.653Z,21.12
2022-08-26T20:37:40.821Z,21.32
2022-08-26T20:40:13.189Z,21.24
2022-08-26T20:42:41.713Z,21.56
2022-08-26T20:45:11.528Z,21.06
2022-08-26T20:47:39.937Z,21.11
2022-08-26T20:50:09.337Z,20.95
2022-08-26T20:52:39.079Z,21.41
2022-08-26T20:55:08.672Z,21.29
2022-08-26T20:57:37.364Z,20.95
2022-08-26T21:00:07.710Z,21.02
2022-08-26T21:02:37.063Z,20.88
2022-08-26T21:05:06.592Z,20.81
2022-08-26T21:07:36.958Z,21.04
2022-08-26T21:10:07.607Z,20.60
2022-08-26T21:12:36.841Z,20.90
2022-08-26T21:15:07.462Z,20.86
2022-08-26T21:17:36.613Z,21.32
2022-08-26T21:20:06.041Z,20.91
2022-08-26T21:22:34.469Z,21.17
2022-08-26T21:25:03.025Z,21.53
2022-08-26T21:27:33.156Z,21.32
2022-08-26T21:30:01.508Z,21.07
2022-08-26T21:32:29.890Z,21.35
2022-08-26T21:34:59.719Z,21.15
2022-08-26T21:37:29.437Z,21.16
2022-08-26T21:40:01.938Z,21.08
2022-08-26T21:42:35.796Z,21.17
2022-08-26T21:45:05.602Z,21.18
2022-08-26T21:47:34.006Z,20.92
2022-08-26T21:50:02.460Z,20.91
2022-08-26T21:52:30.831Z,20.97
2022-08-26T21:55:00.302Z,20.37
2022-08-26T21:57:30.264Z,20.27
2022-08-26T22:00:00.490Z,20.41
2022-08-26T22:02:33.173Z,20.55
2022-08-26T22:05:01.560Z,21.36
2022-08-26T22:07:29.939Z,21.16
2022-08-26T22:09:58.279Z,22.21
2022-08-26T22:12:26.616Z,21.30
2022-08-26T22:14:55.691Z,20.80
2022-08-26T22:17:26.509Z,20.30
2022-08-26T22:19:55.169Z,21.12
2022-08-26T22:22:26.298Z,20.60
2022-08-26T22:24:54.703Z,20.70
2022-08-26T22:27:23.125Z,20.10
2022-08-26T22:29:51.551Z,19.86
2022-08-26T22:32:20.016Z,20.28
2022-08-26T22:34:49.739Z,20.20
2022-08-26T22:37:18.119Z,20.01
2022-08-26T22:39:46.439Z,20.56
2022-08-26T22:42:15.467Z,19.93
2022-08-26T22:44:44.128Z,19.98
2022-08-26T22:47:12.562Z,19.25
2022-08-26T22:49:40.881Z,19.50
2022-08-26T22:52:10.598Z,18.98
2022-08-26T22:54:40.174Z,19.88
2022-08-26T22:57:09.842Z,19.41
2022-08-26T22:59:39.451Z,19.70
2022-08-26T23:02:12.128Z,19.64
2022-08-26T23:04:42.787Z,19.59
2022-08-26T23:07:13.882Z,19.79
2022-08-26T23:09:43.633Z,19.32
2022-08-26T23:12:13.757Z,19.67
2022-08-26T23:14:43.976Z,20.13
2022-08-26T23:17:14.391Z,20.36
2022-08-26T23:19:44.191Z,20.42
2022-08-26T23:22:16.926Z,20.31
2022-08-26T23:24:46.711Z,20.47
2022-08-26T23:27:16.738Z,20.88
2022-08-26T23:29:46.535Z,20.82
2022-08-26T23:32:15.196Z,21.05
2022-08-26T23:34:59.622Z,21.06
2022-08-26T23:37:33.572Z,20.22
2022-08-26T23:40:06.911Z,19.75
2022-08-26T23:42:36.219Z,20.29
2022-08-26T23:45:05.748Z,19.76
2022-08-26T23:47:34.627Z,20.17
2022-08-26T23:50:03.268Z,19.65
2022-08-26T23:52:50.622Z,19.98
2022-08-26T23:55:19.297Z,20.21
2022-08-26T23:57:47.981Z,20.17
